createdAt,value
2019-04-13T00:02:26.569Z,11.63
2019-04-13T00:05:15.445Z,13.03
2019-04-13T00:07:46.814Z,10.87
2019-04-13T00:10:19.901Z,12.83
2019-04-13T00:12:49.496Z,15.50
2019-04-13T00:15:19.264Z,15.90
2019-04-13T00:17:48.493Z,15.60
2019-04-13T00:20:18.402Z,15.37
2019-04-13T00:22:48.716Z,13.57
2019-04-13T00:25:18.364Z,14.23
2019-04-13T00:27:48.236Z,14.07
2019-04-13T00:30:17.602Z,16.40
2019-04-13T00:32:47.780Z,16.57
2019-04-13T00:35:17.397Z,14.27
2019-04-13T00:37:47.071Z,16.47
2019-04-13T00:40:16.948Z,16.90
2019-04-13T00:42:46.683Z,20.40
2019-04-13T00:45:16.810Z,17.40
2019-04-13T00:47:45.913Z,17.63
2019-04-13T00:50:14.977Z,22.20
2019-04-13T00:52:45.328Z,18.10
2019-04-13T00:55:15.239Z,18.93
2019-04-13T00:57:45.180Z,19.37
2019-04-13T01:00:15.549Z,21.90
2019-04-13T01:02:45.463Z,19.97
2019-04-13T01:05:15.182Z,19.57
2019-04-13T01:07:46.557Z,21.40
2019-04-13T01:10:16.624Z,19.57
2019-04-13T01:12:45.625Z,21.90
2019-04-13T01:15:15.817Z,20.17
2019-04-13T01:17:45.482Z,18.23
2019-04-13T01:20:15.222Z,24.20
2019-04-13T01:22:45.641Z,21.63
2019-04-13T01:25:15.436Z,20.33
2019-04-13T01:27:45.025Z,19.17
2019-04-13T01:30:15.486Z,28.20
2019-04-13T01:32:45.163Z,19.70
2019-04-13T01:35:15.008Z,20.17
2019-04-13T01:37:45.130Z,20.87
2019-04-13T01:40:14.910Z,22.10
2019-04-13T01:42:43.976Z,23.37
2019-04-13T01:45:14.233Z,24.73
2019-04-13T01:47:44.481Z,24.17
2019-04-13T01:50:14.352Z,22.00
2019-04-13T01:52:44.205Z,22.53
2019-04-13T01:55:13.995Z,26.03
2019-04-13T01:57:44.533Z,23.93
2019-04-13T02:00:17.308Z,27.67
2019-04-13T02:02:55.703Z,23.27
2019-04-13T02:05:42.983Z,24.13
2019-04-13T02:08:34.140Z,25.53
2019-04-13T02:11:11.268Z,24.87
2019-04-13T02:13:41.102Z,25.57
2019-04-13T02:16:10.901Z,24.27
2019-04-13T02:18:40.593Z,22.77
2019-04-13T02:21:10.769Z,23.47
2019-04-13T02:23:40.797Z,24.53
2019-04-13T02:26:10.513Z,25.13
2019-04-13T02:28:40.322Z,26.47
2019-04-13T02:31:10.336Z,25.57
2019-04-13T02:33:40.049Z,26.80
2019-04-13T02:36:10.002Z,29.47
2019-04-13T02:38:39.460Z,24.83
2019-04-13T02:41:09.082Z,27.13
2019-04-13T02:43:38.974Z,31.20
2019-04-13T02:46:09.173Z,26.80
2019-04-13T02:48:38.090Z,29.37
2019-04-13T02:51:07.842Z,26.20
2019-04-13T02:53:37.631Z,24.77
2019-04-13T02:56:07.474Z,26.40
2019-04-13T02:58:37.151Z,29.00
2019-04-13T03:01:07.772Z,25.70
2019-04-13T03:03:37.434Z,25.00
2019-04-13T03:06:07.425Z,27.27
2019-04-13T03:08:37.442Z,25.63
2019-04-13T03:11:07.150Z,29.90
2019-04-13T03:13:36.914Z,29.37
2019-04-13T03:16:37.510Z,31.70
2019-04-13T03:19:29.557Z,26.53
2019-04-13T03:21:58.897Z,29.33
2019-04-13T03:24:28.549Z,29.83
2019-04-13T03:26:58.152Z,27.47
2019-04-13T03:29:28.170Z,26.53
2019-04-13T03:31:57.954Z,31.60
2019-04-13T03:34:28.052Z,32.70
2019-04-13T03:36:57.776Z,31.70
2019-04-13T03:39:27.722Z,28.77
2019-04-13T03:41:59.160Z,30.73
2019-04-13T03:44:28.711Z,33.27
2019-04-13T03:46:59.117Z,26.73
2019-04-13T03:49:29.053Z,33.07
2019-04-13T03:51:58.925Z,33.57
2019-04-13T03:54:29.259Z,35.37
2019-04-13T03:56:58.478Z,37.57
2019-04-13T03:59:28.056Z,34.87
2019-04-13T04:01:58.352Z,32.77
2019-04-13T04:04:28.026Z,31.37
2019-04-13T04:06:58.001Z,32.63
2019-04-13T04:09:28.341Z,33.93
2019-04-13T04:11:58.074Z,33.67
2019-04-13T04:14:28.046Z,31.80
2019-04-13T04:16:57.849Z,35.37
2019-04-13T04:19:28.027Z,38.27
2019-04-13T04:21:57.721Z,37.50
2019-04-13T04:24:30.663Z,35.50
2019-04-13T04:27:00.624Z,37.67
2019-04-13T04:29:30.417Z,35.43
2019-04-13T04:32:00.403Z,42.70
2019-04-13T04:34:30.642Z,37.50
2019-04-13T04:37:00.181Z,42.00
2019-04-13T04:39:30.398Z,38.40
2019-04-13T04:41:59.980Z,32.37
2019-04-13T04:44:29.520Z,34.27
2019-04-13T04:46:58.929Z,38.00
2019-04-13T04:49:28.596Z,41.43
2019-04-13T04:51:58.395Z,33.90
2019-04-13T04:54:28.524Z,43.07
2019-04-13T04:56:58.211Z,36.27
2019-04-13T04:59:27.928Z,34.40
2019-04-13T05:01:58.201Z,38.10
2019-04-13T05:04:28.196Z,32.50
2019-04-13T05:06:57.728Z,34.93
2019-04-13T05:09:27.734Z,33.47
2019-04-13T05:11:57.436Z,31.23
2019-04-13T05:14:27.036Z,37.30
2019-04-13T05:16:56.846Z,40.07
2019-04-13T05:19:26.786Z,32.13
2019-04-13T05:21:56.561Z,36.53
2019-04-13T05:24:25.767Z,39.67
2019-04-13T05:26:55.326Z,36.57
2019-04-13T05:29:24.865Z,36.87
2019-04-13T05:31:54.251Z,41.97
2019-04-13T05:34:23.918Z,44.20
2019-04-13T05:36:52.792Z,40.03
2019-04-13T05:39:22.629Z,38.87
2019-04-13T05:41:51.600Z,39.60
2019-04-13T05:44:21.301Z,46.30
2019-04-13T05:46:51.192Z,36.97
2019-04-13T05:49:20.884Z,40.03
2019-04-13T05:51:50.048Z,36.17
2019-04-13T05:54:19.445Z,37.00
2019-04-13T05:56:49.273Z,33.37
2019-04-13T05:59:18.349Z,28.60
2019-04-13T06:01:48.153Z,31.80
2019-04-13T06:04:18.109Z,33.80
2019-04-13T06:06:59.383Z,31.73
2019-04-13T06:09:19.947Z,29.97
2019-04-13T06:11:49.587Z,32.33
2019-04-13T06:14:18.459Z,34.13
2019-04-13T06:16:48.295Z,29.63
2019-04-13T06:19:17.228Z,29.90
2019-04-13T06:21:46.114Z,33.13
2019-04-13T06:24:15.925Z,35.70
2019-04-13T06:26:44.865Z,30.50
2019-04-13T06:29:13.849Z,30.40
2019-04-13T06:32:02.760Z,26.27
2019-04-13T06:34:42.329Z,24.93
2019-04-13T06:37:12.747Z,32.33
2019-04-13T06:39:42.315Z,22.17
2019-04-13T06:42:16.069Z,24.33
2019-04-13T06:44:43.425Z,24.37
2019-04-13T06:47:12.309Z,24.17
2019-04-13T06:49:41.843Z,23.83
2019-04-13T06:52:11.210Z,22.73
2019-04-13T06:54:40.893Z,17.40
2019-04-13T06:57:11.329Z,16.73
2019-04-13T06:59:41.422Z,18.57
2019-04-13T07:02:10.957Z,17.27
2019-04-13T07:04:40.857Z,19.17
2019-04-13T07:07:24.341Z,16.90
2019-04-13T07:10:07.114Z,16.60
2019-04-13T07:12:55.770Z,16.23
2019-04-13T07:15:30.177Z,19.53
2019-04-13T07:17:58.053Z,17.70
2019-04-13T07:20:28.013Z,17.60
2019-04-13T07:22:57.664Z,15.93
2019-04-13T07:25:27.481Z,18.50
2019-04-13T07:27:57.065Z,17.63
2019-04-13T07:30:26.610Z,18.50
2019-04-13T07:32:56.485Z,16.53
2019-04-13T07:35:25.780Z,19.30
2019-04-13T07:37:55.297Z,19.77
2019-04-13T07:40:25.137Z,19.07
2019-04-13T07:42:54.720Z,17.73
2019-04-13T07:45:50.701Z,20.60
2019-04-13T07:48:32.460Z,18.50
2019-04-13T07:51:06.726Z,21.73
2019-04-13T07:53:36.612Z,19.30
2019-04-13T07:56:05.559Z,22.40
2019-04-13T07:58:35.177Z,18.23
2019-04-13T08:01:06.624Z,19.60
2019-04-13T08:03:36.176Z,16.93
2019-04-13T08:06:05.071Z,22.53
2019-04-13T08:08:39.925Z,19.97
2019-04-13T08:11:07.337Z,16.87
2019-04-13T08:13:36.874Z,18.77
2019-04-13T08:16:09.345Z,24.63
2019-04-13T08:18:52.119Z,22.17
2019-04-13T08:21:21.779Z,19.73
2019-04-13T08:23:55.296Z,22.13
2019-04-13T08:26:24.987Z,20.67
2019-04-13T08:28:54.813Z,20.70
2019-04-13T08:31:26.399Z,17.77
2019-04-13T08:33:56.664Z,19.13
2019-04-13T08:36:26.881Z,18.10
2019-04-13T08:38:58.973Z,20.10
2019-04-13T08:41:28.100Z,20.47
2019-04-13T08:43:57.629Z,19.17
2019-04-13T08:46:28.227Z,22.23
2019-04-13T08:48:58.068Z,17.03
2019-04-13T08:51:27.625Z,18.30
2019-04-13T08:53:57.537Z,14.70
2019-04-13T08:56:30.796Z,18.27
2019-04-13T08:58:58.427Z,15.63
2019-04-13T09:01:28.306Z,15.00
2019-04-13T09:03:58.361Z,14.13
2019-04-13T09:06:27.908Z,14.67
2019-04-13T09:08:57.138Z,16.70
2019-04-13T09:11:26.842Z,16.30
2019-04-13T09:13:56.341Z,17.47
2019-04-13T09:16:28.853Z,18.97
2019-04-13T09:19:17.090Z,22.07
2019-04-13T09:21:54.159Z,18.87
2019-04-13T09:24:24.037Z,20.00
2019-04-13T09:26:53.582Z,16.00
2019-04-13T09:29:23.638Z,12.40
2019-04-13T09:31:52.592Z,13.43
2019-04-13T09:34:32.939Z,12.03
2019-04-13T09:36:53.305Z,12.00
2019-04-13T09:39:22.936Z,12.03
2019-04-13T09:41:51.871Z,9.90
2019-04-13T09:44:39.032Z,11.73
2019-04-13T09:47:12.870Z,17.13
2019-04-13T09:49:42.469Z,12.13
2019-04-13T09:52:11.360Z,12.03
2019-04-13T09:54:43.329Z,13.30
2019-04-13T09:57:11.924Z,9.40
2019-04-13T09:59:41.470Z,10.00
2019-04-13T10:02:11.418Z,12.67
2019-04-13T10:04:41.047Z,11.07
2019-04-13T10:07:10.574Z,11.43
2019-04-13T10:09:42.205Z,10.83
2019-04-13T10:12:32.452Z,12.90
2019-04-13T10:15:33.549Z,8.87
2019-04-13T10:18:07.240Z,7.00
2019-04-13T10:20:39.229Z,9.53
2019-04-13T10:23:07.775Z,11.67
2019-04-13T10:25:38.359Z,14.27
2019-04-13T10:28:08.929Z,10.20
2019-04-13T10:30:38.462Z,9.43
2019-04-13T10:33:08.371Z,9.30
2019-04-13T10:35:38.354Z,9.67
2019-04-13T10:38:07.881Z,9.00
2019-04-13T10:40:37.488Z,8.60
2019-04-13T10:43:06.743Z,8.47
2019-04-13T10:45:50.345Z,9.27
2019-04-13T10:48:26.453Z,9.30
2019-04-13T10:51:14.901Z,8.93
2019-04-13T10:53:44.497Z,7.03
2019-04-13T10:56:13.793Z,8.40
2019-04-13T10:58:42.716Z,8.23
2019-04-13T11:01:11.600Z,9.83
2019-04-13T11:03:41.611Z,8.27
2019-04-13T11:06:11.245Z,8.57
2019-04-13T11:08:40.130Z,9.27
2019-04-13T11:11:09.384Z,9.27
2019-04-13T11:13:39.005Z,9.20
2019-04-13T11:16:08.676Z,8.47
2019-04-13T11:18:38.644Z,9.10
2019-04-13T11:21:08.273Z,9.43
2019-04-13T11:23:45.037Z,8.83
2019-04-13T11:26:09.072Z,14.90
2019-04-13T11:28:39.251Z,7.87
2019-04-13T11:31:09.766Z,8.23
2019-04-13T11:33:42.483Z,12.33
2019-04-13T11:36:11.072Z,8.33
2019-04-13T11:38:39.941Z,7.47
2019-04-13T11:41:19.645Z,8.73
2019-04-13T11:44:06.921Z,13.07
2019-04-13T11:46:45.130Z,11.07
2019-04-13T11:49:16.853Z,8.90
2019-04-13T11:51:48.077Z,10.13
2019-04-13T11:54:20.838Z,12.33
2019-04-13T11:56:50.724Z,14.20
2019-04-13T11:59:19.619Z,10.63
2019-04-13T12:02:08.170Z,11.63
2019-04-13T12:04:49.343Z,12.33
2019-04-13T12:16:55.703Z,14.07
2019-04-13T12:19:30.000Z,13.03
2019-04-13T12:22:12.528Z,15.70
2019-04-13T12:24:41.404Z,11.30
2019-04-13T12:27:11.056Z,11.87
2019-04-13T12:29:46.891Z,12.00
2019-04-13T12:32:34.669Z,13.90
2019-04-13T12:35:07.910Z,14.10
2019-04-13T12:37:36.246Z,15.43
2019-04-13T12:40:26.077Z,17.37
2019-04-13T12:43:01.810Z,14.13
2019-04-13T12:45:32.583Z,12.93
2019-04-13T12:48:09.188Z,12.97
2019-04-13T12:50:38.741Z,10.90
2019-04-13T12:53:08.292Z,11.13
2019-04-13T12:55:44.068Z,11.30
2019-04-13T12:58:12.972Z,13.70
2019-04-13T13:00:45.889Z,13.07
2019-04-13T13:03:23.103Z,11.60
2019-04-13T13:05:53.608Z,12.13
2019-04-13T13:08:23.373Z,13.40
2019-04-13T13:10:53.048Z,11.67
2019-04-13T13:13:22.833Z,10.83
2019-04-13T13:15:52.431Z,11.93
2019-04-13T13:18:26.177Z,12.43
2019-04-13T13:20:52.900Z,8.87
2019-04-13T13:23:22.433Z,15.23
2019-04-13T13:25:52.064Z,10.20
2019-04-13T13:28:21.876Z,11.57
2019-04-13T13:30:51.779Z,13.30
2019-04-13T13:33:20.824Z,12.67
2019-04-13T13:35:50.801Z,13.20
2019-04-13T13:50:15.477Z,13.57
2019-04-13T13:52:44.381Z,13.93
2019-04-13T13:55:20.615Z,12.63
2019-04-13T13:58:10.393Z,15.43
2019-04-13T14:01:18.952Z,12.90
2019-04-13T14:03:48.685Z,11.07
2019-04-13T14:06:20.912Z,13.50
2019-04-13T14:08:56.683Z,12.27
2019-04-13T14:14:34.515Z,10.33
2019-04-13T14:17:04.485Z,8.83
2019-04-13T14:19:34.133Z,10.77
2019-04-13T14:22:10.764Z,8.77
2019-04-13T14:24:39.670Z,10.33
2019-04-13T14:27:14.720Z,10.93
2019-04-13T14:29:44.860Z,17.67
2019-04-13T14:32:14.470Z,12.70
2019-04-13T14:34:52.398Z,9.27
2019-04-13T14:37:21.980Z,11.63
2019-04-13T14:39:50.867Z,10.07
2019-04-13T14:42:27.445Z,13.17
2019-04-13T14:44:59.770Z,15.53
2019-04-13T14:47:29.628Z,12.00
2019-04-13T14:50:05.218Z,11.30
2019-04-13T14:52:34.110Z,12.30
2019-04-13T14:55:22.546Z,13.43
2019-04-13T14:57:51.438Z,9.70
2019-04-13T15:00:21.355Z,9.47
2019-04-13T15:02:58.433Z,10.33
2019-04-13T15:05:28.975Z,13.60
2019-04-13T15:07:58.541Z,10.77
2019-04-13T15:10:35.416Z,10.37
2019-04-13T15:13:10.363Z,12.03
2019-04-13T15:15:47.383Z,15.37
2019-04-13T15:18:34.876Z,12.60
2019-04-13T15:21:11.084Z,11.00
2019-04-13T15:23:42.556Z,11.17
2019-04-13T15:26:19.010Z,10.63
2019-04-13T15:28:49.473Z,11.50
2019-04-13T15:31:18.705Z,11.57
2019-04-13T15:33:58.095Z,11.93
2019-04-13T15:36:30.911Z,11.00
2019-04-13T15:39:01.550Z,11.23
2019-04-13T15:41:46.136Z,14.93
2019-04-13T15:44:09.485Z,13.80
2019-04-13T15:46:39.196Z,11.97
2019-04-13T15:49:15.441Z,15.67
2019-04-13T15:51:44.967Z,11.10
2019-04-13T15:54:22.275Z,13.07
2019-04-13T15:56:51.236Z,12.73
2019-04-13T15:59:21.613Z,11.03
2019-04-13T16:01:59.411Z,11.83
2019-04-13T16:04:29.043Z,13.30
2019-04-13T16:07:05.340Z,14.13
2019-04-13T16:09:57.455Z,16.90
2019-04-13T16:12:38.977Z,12.50
2019-04-13T16:15:16.363Z,16.40
2019-04-13T16:17:52.141Z,14.50
2019-04-13T16:20:22.862Z,24.73
2019-04-13T16:22:51.805Z,15.80
2019-04-13T16:25:30.563Z,14.87
2019-04-13T16:28:28.714Z,17.00
2019-04-13T16:31:15.970Z,12.10
2019-04-13T16:34:05.165Z,15.00
2019-04-13T16:36:56.598Z,11.43
2019-04-13T16:39:32.649Z,11.60
2019-04-13T16:42:08.693Z,13.47
2019-04-13T16:44:58.361Z,12.77
2019-04-13T16:48:05.082Z,11.90
2019-04-13T16:50:51.593Z,9.60
2019-04-13T16:53:40.889Z,10.93
2019-04-13T16:56:41.961Z,9.50
2019-04-13T16:59:39.241Z,10.03
2019-04-13T17:02:33.797Z,10.33
2019-04-13T17:05:07.222Z,11.63
2019-04-13T17:07:44.718Z,10.47
2019-04-13T17:10:14.932Z,12.77
2019-04-13T17:12:46.282Z,12.80
2019-04-13T17:15:31.262Z,12.70
2019-04-13T17:18:10.004Z,13.57
2019-04-13T17:21:13.484Z,16.13
2019-04-13T17:24:07.333Z,14.63
2019-04-13T17:27:05.163Z,13.77
2019-04-13T17:29:50.231Z,11.57
2019-04-13T17:32:44.249Z,14.77
2019-04-13T17:35:24.563Z,14.67
2019-04-13T17:37:54.806Z,14.10
2019-04-13T17:40:36.733Z,17.43
2019-04-13T17:43:34.514Z,10.00
2019-04-13T17:46:36.993Z,13.43
2019-04-13T17:49:23.601Z,16.27
2019-04-13T17:52:19.025Z,23.27
2019-04-13T17:55:04.747Z,23.87
2019-04-13T17:58:06.753Z,26.07
2019-04-13T18:01:10.322Z,24.87
2019-04-13T18:04:14.459Z,20.77
2019-04-13T18:07:21.742Z,22.03
2019-04-13T18:10:23.565Z,21.87
2019-04-13T18:13:20.358Z,21.37
2019-04-13T18:16:06.575Z,22.60
2019-04-13T18:18:47.738Z,24.27
2019-04-13T18:21:24.209Z,23.13
2019-04-13T18:23:53.122Z,22.07
2019-04-13T18:26:29.328Z,23.40
2019-04-13T18:28:58.824Z,20.13
2019-04-13T18:31:27.800Z,19.77
2019-04-13T18:34:04.000Z,23.43
2019-04-13T18:36:34.187Z,43.07
2019-04-13T18:39:13.435Z,26.37
2019-04-13T18:41:43.687Z,29.07
2019-04-13T18:44:13.671Z,27.50
2019-04-13T18:46:49.263Z,25.40
2019-04-13T18:49:20.188Z,25.73
2019-04-13T18:51:56.600Z,26.13
2019-04-13T18:54:26.504Z,24.80
2019-04-13T18:56:56.187Z,27.13
2019-04-13T18:59:33.647Z,26.70
2019-04-13T19:02:02.528Z,28.73
2019-04-13T19:04:39.924Z,30.80
2019-04-13T19:07:09.525Z,22.77
2019-04-13T19:09:39.374Z,22.40
2019-04-13T19:12:16.042Z,29.47
2019-04-13T19:14:45.626Z,27.37
2019-04-13T19:17:28.549Z,40.70
2019-04-13T19:19:57.443Z,38.20
2019-04-13T19:22:26.365Z,50.17
2019-04-13T19:25:03.153Z,24.40
2019-04-13T19:27:33.617Z,23.93
2019-04-13T19:30:10.770Z,25.00
2019-04-13T19:36:03.925Z,26.47
2019-04-13T19:38:33.745Z,19.93
2019-04-13T19:41:03.486Z,20.73
2019-04-13T19:43:33.985Z,22.17
2019-04-13T19:46:03.684Z,24.23
2019-04-13T19:48:33.590Z,24.30
2019-04-13T19:51:03.670Z,24.87
2019-04-13T19:53:43.910Z,26.20
2019-04-13T19:56:15.216Z,27.23
2019-04-13T19:58:44.785Z,27.90
2019-04-13T20:01:15.593Z,29.67
2019-04-13T20:03:45.629Z,21.63
2019-04-13T20:06:19.181Z,27.27
2019-04-13T20:08:46.891Z,25.90
2019-04-13T20:11:16.844Z,24.20
2019-04-13T20:13:53.429Z,28.10
2019-04-13T20:16:18.896Z,24.87
2019-04-13T20:18:48.863Z,26.77
2019-04-13T20:21:18.424Z,23.87
2019-04-13T20:23:47.389Z,31.43
2019-04-13T20:26:18.613Z,30.90
2019-04-13T20:28:48.261Z,28.73
2019-04-13T20:31:18.238Z,32.47
2019-04-13T20:33:50.391Z,29.27
2019-04-13T20:36:22.584Z,26.90
2019-04-13T20:38:52.070Z,30.53
2019-04-13T20:41:23.569Z,34.60
2019-04-13T20:43:59.565Z,31.33
2019-04-13T20:46:25.736Z,27.57
2019-04-13T20:48:55.532Z,32.07
2019-04-13T20:51:25.746Z,31.30
2019-04-13T20:53:55.992Z,30.23
2019-04-13T20:56:25.662Z,29.20
2019-04-13T20:58:55.525Z,34.90
2019-04-13T21:01:25.835Z,33.33
2019-04-13T21:03:55.611Z,39.37
2019-04-13T21:06:24.544Z,35.80
2019-04-13T21:08:55.994Z,45.83
2019-04-13T21:11:25.640Z,51.47
2019-04-13T21:14:04.977Z,59.13
2019-04-13T21:16:26.215Z,91.93
2019-04-13T21:18:55.810Z,56.13
2019-04-13T21:21:25.980Z,88.93
2019-04-13T21:23:55.893Z,62.90
2019-04-13T21:26:26.977Z,75.30
2019-04-13T21:28:58.261Z,107.30
2019-04-13T21:31:28.163Z,47.33
2019-04-13T21:33:58.286Z,54.83
2019-04-13T21:36:28.128Z,45.70
2019-04-13T21:38:58.411Z,53.73
2019-04-13T21:41:28.176Z,71.73
2019-04-13T21:44:10.023Z,56.00
2019-04-13T21:46:28.866Z,60.87
2019-04-13T21:48:58.984Z,75.40
2019-04-13T21:51:46.645Z,51.53
2019-04-13T21:54:21.380Z,46.60
2019-04-13T21:56:51.515Z,49.67
2019-04-13T21:59:21.549Z,58.40
2019-04-13T22:02:20.414Z,51.07
2019-04-13T22:04:50.397Z,47.90
2019-04-13T22:07:20.163Z,41.60
2019-04-13T22:09:50.056Z,43.63
2019-04-13T22:12:19.985Z,38.03
2019-04-13T22:14:54.956Z,41.23
2019-04-13T22:17:22.487Z,41.30
2019-04-13T22:19:52.943Z,47.73
2019-04-13T22:22:23.553Z,40.13
2019-04-13T22:24:54.787Z,42.90
2019-04-13T22:27:27.037Z,44.63
2019-04-13T22:29:57.487Z,38.47
2019-04-13T22:32:58.733Z,42.37
2019-04-13T22:35:41.069Z,45.93
2019-04-13T22:38:11.321Z,42.73
2019-04-13T22:40:41.234Z,41.40
2019-04-13T22:43:11.075Z,43.03
2019-04-13T22:45:42.503Z,42.07
2019-04-13T22:48:26.980Z,41.40
2019-04-13T22:51:11.873Z,39.53
2019-04-13T22:53:59.314Z,40.23
2019-04-13T22:56:35.532Z,37.33
2019-04-13T22:59:05.330Z,38.97
2019-04-13T23:01:35.816Z,45.17
2019-04-13T23:04:05.952Z,40.53
2019-04-13T23:06:35.835Z,45.67
2019-04-13T23:09:08.586Z,43.63
2019-04-13T23:11:38.931Z,44.03
2019-04-13T23:14:09.005Z,44.90
2019-04-13T23:16:39.153Z,42.00
2019-04-13T23:19:09.049Z,42.53
2019-04-13T23:21:41.871Z,47.07
2019-04-13T23:24:12.378Z,41.43
2019-04-13T23:26:41.352Z,46.23
2019-04-13T23:29:10.969Z,43.50
2019-04-13T23:31:41.061Z,41.37
2019-04-13T23:34:11.513Z,51.33
2019-04-13T23:36:40.436Z,46.07
2019-04-13T23:39:10.588Z,43.47
2019-04-13T23:41:40.742Z,49.93
2019-04-13T23:44:11.331Z,45.43
2019-04-13T23:46:41.684Z,42.27
2019-04-13T23:49:12.284Z,47.30
2019-04-13T23:51:42.426Z,44.20
2019-04-13T23:54:12.954Z,47.83
2019-04-13T23:56:50.016Z,42.50
2019-04-13T23:59:26.344Z,41.83
